Nearby METAR Reports

 

EHGG - Groningen/Eelde, Netherlands
Distance from station: WSW 29km
Updated: 08/12/2019 06:55
Light rain, Showers, Overcast
Light rain, Showers, Overcast
 Wind from SW
Wind: SW 44 km/h, Gust: 65 km/h
Temperature: 8°C
Wind Chill: 3°C
Dew Point: 6°C
Humidity: 87%
Barometer: 998 hPa
Summary: Light rain, Showers
Clouds: Overcast
Visibility: 8 km
Cloud details: Mostly cloudy 518 m
Overcast 610 m
2019/12/08 05:55 EHGG 080555Z AUTO 22024G35KT 8000 -SHRA BKN017 OVC020 08/06 Q0998 BECMG 7000 RA BKN014
ETNT - Wittmundhaven(Ga, Germany
Distance from station: ENE 57km
Updated: 08/12/2019 06:20
Mostly cloudy
Mostly cloudy
 Wind from SW
Wind: SW 39 km/h, Gust: 59 km/h
Temperature: 9°C
Wind Chill: 4°C
Dew Point: 5°C
Humidity: 76%
Barometer: 997 hPa
Clouds: Mostly cloudy
Visibility: 10 km
Cloud details: Mostly cloudy 549 m
2019/12/08 05:20 ETNT 080520Z 22021G32KT 9999 BKN018 09/05 Q0997 WHT
 
ETWM - Meppen, Germany
Distance from station: SSE 66km
Updated: 08/12/2019 06:20

 Wind from SW
Wind: SW 35 km/h, Gust: 56 km/h
Temperature: 9°C
Wind Chill: 5°C
Dew Point: 5°C
Humidity: 76%
Barometer: 1000 hPa
2019/12/08 05:20 ETWM 080520Z AUTO 22019G30KT //// // ////// 09/05 Q1000 ///
EHMA - Awg-1 Sea, Netherlands
Distance from station: WNW 70km
Updated: 08/12/2019 06:55
Light drizzle, Overcast
Light drizzle, Overcast
 Wind from varies
Wind: varies 61 km/h, Gust: 94 km/h
Temperature: 9°C
Wind Chill: 3°C
Dew Point: 7°C
Humidity: 87%
Barometer: 994 hPa
Summary: Light Drizzle
Clouds: Overcast
Visibility: 9 km
Cloud details: Partly cloudy 305 m
Mostly cloudy 396 m
Overcast 457 m
2019/12/08 05:55 EHMA 080555Z AUTO VRB33G51KT 9000 -DZ SCT010 BKN013 OVC015 09/07 Q0994 W///H///
 
EHLW - Leeuwarden Rnlaf, Netherlands
Distance from station: W 79km
Updated: 08/12/2019 07:10
Light, Showers, Few clouds
Light, Showers, Few clouds
 Wind from SSW
Wind: SSW 39 km/h, Gust: 57 km/h
Temperature: 8°C
Wind Chill: 3°C
Dew Point: 7°C
Humidity: 93%
Barometer: 996 hPa
Summary: Light, Showers
Clouds: Few Clouds
Visibility: 5 km
Cloud details: Few Clouds 213 m
Partly cloudy 335 m
Mostly cloudy 396 m
Few Clouds 457 m
2019/12/08 06:10 EHLW 080610Z AUTO 21021G31KT 170V230 4600 -SHUP FEW007 SCT011 BKN013 FEW015CB 08/07 Q0996 GRN